createdAt,value
2018-12-16T00:00:36.201Z,0.60
2018-12-16T00:03:04.320Z,0.70
2018-12-16T00:05:32.501Z,0.80
2018-12-16T00:08:00.775Z,0.80
2018-12-16T00:10:28.915Z,0.90
2018-12-16T00:12:57.283Z,0.90
2018-12-16T00:15:25.515Z,1.00
2018-12-16T00:17:53.660Z,0.90
2018-12-16T00:20:21.801Z,0.90
2018-12-16T00:22:49.992Z,1.00
2018-12-16T00:25:18.284Z,1.00
2018-12-16T00:27:46.520Z,1.10
2018-12-16T00:30:14.713Z,1.10
2018-12-16T00:32:42.844Z,1.10
2018-12-16T00:35:10.974Z,1.00
2018-12-16T00:37:39.155Z,1.10
2018-12-16T00:40:07.711Z,1.00
2018-12-16T00:42:35.900Z,1.00
2018-12-16T00:45:04.640Z,0.80
2018-12-16T00:47:32.774Z,0.70
2018-12-16T00:50:01.019Z,0.80
2018-12-16T00:52:29.148Z,0.80
2018-12-16T00:54:57.264Z,0.90
2018-12-16T00:57:25.439Z,0.80
2018-12-16T00:59:53.555Z,0.90
2018-12-16T01:02:27.034Z,1.00
2018-12-16T01:04:55.188Z,1.10
2018-12-16T01:07:23.327Z,1.10
2018-12-16T01:09:51.501Z,1.10
2018-12-16T01:12:19.583Z,1.10
2018-12-16T01:14:47.728Z,1.10
2018-12-16T01:17:15.924Z,1.10
2018-12-16T01:19:44.073Z,1.20
2018-12-16T01:22:12.192Z,1.20
2018-12-16T01:24:40.361Z,1.10
2018-12-16T01:27:08.499Z,1.10
2018-12-16T01:29:36.679Z,1.00
2018-12-16T01:32:04.873Z,1.00
2018-12-16T01:34:33.055Z,0.70
2018-12-16T01:37:01.251Z,0.60
2018-12-16T01:39:29.419Z,0.50
2018-12-16T01:41:57.545Z,0.30
2018-12-16T01:44:25.668Z,0.40
2018-12-16T01:46:53.840Z,0.40
2018-12-16T01:49:21.977Z,0.30
2018-12-16T01:51:50.096Z,0.40
2018-12-16T01:54:18.292Z,0.40
2018-12-16T01:56:46.424Z,0.40
2018-12-16T01:59:14.525Z,0.50
2018-12-16T02:01:46.936Z,0.40
2018-12-16T02:04:15.148Z,0.50
2018-12-16T02:06:43.255Z,0.40
2018-12-16T02:09:11.981Z,0.40
2018-12-16T02:11:40.243Z,0.20
2018-12-16T02:14:08.377Z,0.30
2018-12-16T02:16:36.503Z,0.20
2018-12-16T02:19:04.668Z,0.20
2018-12-16T02:21:32.779Z,0.20
2018-12-16T02:24:00.897Z,0.20
2018-12-16T02:26:29.140Z,0.10
2018-12-16T02:28:57.348Z,0.20
2018-12-16T02:31:25.888Z,0.30
2018-12-16T02:33:54.634Z,0.40
2018-12-16T02:36:22.732Z,0.40
2018-12-16T02:38:50.845Z,0.40
2018-12-16T02:41:19.005Z,0.30
2018-12-16T02:43:47.119Z,0.30
2018-12-16T02:46:15.236Z,0.10
2018-12-16T02:48:43.481Z,0.10
2018-12-16T02:53:46.082Z,0.30
2018-12-16T02:56:14.226Z,0.30
2018-12-16T02:58:42.364Z,0.40
2018-12-16T03:01:10.525Z,0.40
2018-12-16T03:03:38.657Z,0.30
2018-12-16T03:06:06.909Z,0.30
2018-12-16T03:08:35.080Z,0.30
2018-12-16T03:11:03.236Z,0.20
2018-12-16T03:13:31.388Z,0.10
2018-12-16T03:15:59.556Z,-0.10
2018-12-16T03:18:27.689Z,0.10
2018-12-16T03:20:55.828Z,0.30
2018-12-16T03:23:24.049Z,0.30
2018-12-16T03:25:52.180Z,0.40
2018-12-16T03:28:20.316Z,0.40
2018-12-16T03:30:48.641Z,0.40
2018-12-16T03:33:16.761Z,0.20
2018-12-16T03:35:44.873Z,0.30
2018-12-16T03:38:13.028Z,0.30
2018-12-16T03:40:41.124Z,0.40
2018-12-16T03:43:09.253Z,0.30
2018-12-16T03:45:37.424Z,0.20
2018-12-16T03:48:05.536Z,0.30
2018-12-16T03:50:33.627Z,0.40
2018-12-16T03:53:01.808Z,0.40
2018-12-16T03:55:29.931Z,0.50
2018-12-16T03:57:58.048Z,0.50
2018-12-16T04:00:26.228Z,0.50
2018-12-16T04:02:54.341Z,0.50
2018-12-16T04:05:22.452Z,0.50
2018-12-16T04:07:50.658Z,0.30
2018-12-16T04:10:18.772Z,0.30
2018-12-16T04:12:46.895Z,0.40
2018-12-16T04:15:15.185Z,0.40
2018-12-16T04:17:43.242Z,0.40
2018-12-16T04:20:11.400Z,0.30
2018-12-16T04:22:39.698Z,0.30
2018-12-16T04:25:07.820Z,0.20
2018-12-16T04:27:35.912Z,0.10
2018-12-16T04:30:04.584Z,0.00
2018-12-16T04:32:32.772Z,0.00
2018-12-16T04:35:00.908Z,-0.10
2018-12-16T04:37:29.129Z,0.00
2018-12-16T04:39:57.259Z,0.10
2018-12-16T04:42:25.815Z,0.20
2018-12-16T04:44:53.975Z,0.10
2018-12-16T04:47:22.096Z,0.10
2018-12-16T04:49:50.205Z,0.20
2018-12-16T04:52:18.507Z,0.30
2018-12-16T04:54:46.614Z,0.40
2018-12-16T04:57:14.832Z,0.40
2018-12-16T04:59:42.971Z,0.30
2018-12-16T05:02:11.088Z,0.30
2018-12-16T05:04:39.210Z,0.30
2018-12-16T05:07:07.517Z,0.20
2018-12-16T05:09:35.633Z,0.00
2018-12-16T05:12:03.741Z,0.00
2018-12-16T05:14:31.955Z,-0.10
2018-12-16T05:17:00.083Z,-0.10
2018-12-16T05:19:28.197Z,-0.20
2018-12-16T05:21:56.363Z,-0.10
2018-12-16T05:24:24.485Z,-0.20
2018-12-16T05:26:52.664Z,-0.20
2018-12-16T05:29:20.841Z,0.00
2018-12-16T05:31:48.956Z,0.00
2018-12-16T05:34:17.088Z,0.10
2018-12-16T05:36:45.247Z,0.20
2018-12-16T05:39:13.554Z,0.10
2018-12-16T05:41:41.777Z,0.00
2018-12-16T05:44:09.937Z,0.10
2018-12-16T05:46:38.204Z,0.00
2018-12-16T05:49:06.316Z,0.00
2018-12-16T05:51:34.456Z,0.00
2018-12-16T05:54:02.737Z,0.00
2018-12-16T05:56:30.861Z,0.00
2018-12-16T05:58:58.972Z,0.10
2018-12-16T06:01:27.127Z,0.20
2018-12-16T06:03:55.324Z,0.10
2018-12-16T06:06:23.440Z,0.10
2018-12-16T06:08:51.559Z,0.10
2018-12-16T06:11:19.819Z,0.10
2018-12-16T06:13:47.948Z,0.00
2018-12-16T06:16:16.061Z,0.00
2018-12-16T06:18:44.237Z,0.00
2018-12-16T06:21:12.372Z,0.10
2018-12-16T06:23:40.491Z,0.10
2018-12-16T06:26:08.604Z,0.20
2018-12-16T06:28:36.737Z,0.20
2018-12-16T06:31:04.894Z,0.30
2018-12-16T06:33:33.047Z,0.20
2018-12-16T06:36:01.240Z,0.20
2018-12-16T06:38:29.412Z,0.30
2018-12-16T06:40:57.527Z,0.40
2018-12-16T06:43:25.596Z,0.20
2018-12-16T06:45:53.868Z,0.30
2018-12-16T06:48:21.992Z,0.40
2018-12-16T06:50:50.156Z,0.30
2018-12-16T06:53:18.329Z,0.30
2018-12-16T06:55:46.478Z,0.30
2018-12-16T06:58:14.601Z,0.10
2018-12-16T07:00:42.708Z,0.10
2018-12-16T07:03:10.847Z,0.00
2018-12-16T07:05:39.015Z,0.10
2018-12-16T07:08:07.148Z,0.00
2018-12-16T07:10:35.468Z,0.00
2018-12-16T07:13:03.644Z,0.10
2018-12-16T07:15:31.759Z,0.20
2018-12-16T07:17:59.868Z,0.20
2018-12-16T07:20:28.034Z,0.40
2018-12-16T07:22:56.136Z,0.30
2018-12-16T07:25:24.275Z,0.20
2018-12-16T07:27:52.554Z,0.10
2018-12-16T07:30:20.735Z,0.20
2018-12-16T07:32:48.971Z,0.30
2018-12-16T07:35:23.673Z,0.30
2018-12-16T07:37:51.860Z,0.20
2018-12-16T07:40:19.970Z,0.20
2018-12-16T07:42:48.127Z,0.20
2018-12-16T07:45:16.257Z,0.20
2018-12-16T07:47:44.366Z,0.30
2018-12-16T07:50:12.651Z,0.30
2018-12-16T07:52:40.836Z,0.30
2018-12-16T07:55:08.973Z,0.40
2018-12-16T07:57:37.195Z,0.50
2018-12-16T08:00:07.177Z,0.60
2018-12-16T08:02:35.333Z,0.60
2018-12-16T08:05:03.509Z,0.70
2018-12-16T08:07:31.746Z,0.70
2018-12-16T08:09:59.860Z,0.80
2018-12-16T08:12:28.172Z,0.80
2018-12-16T08:14:56.520Z,0.70
2018-12-16T08:17:24.610Z,0.60
2018-12-16T08:19:52.780Z,0.50
2018-12-16T08:22:20.944Z,0.60
2018-12-16T08:24:49.015Z,0.60
2018-12-16T08:27:17.196Z,0.70
2018-12-16T08:29:45.361Z,0.80
2018-12-16T08:32:13.474Z,0.80
2018-12-16T08:34:41.600Z,0.90
2018-12-16T08:37:09.713Z,0.90
2018-12-16T08:39:37.815Z,0.90
2018-12-16T08:42:06.080Z,1.00
2018-12-16T08:44:34.312Z,0.90
2018-12-16T08:47:02.401Z,0.80
2018-12-16T08:49:30.563Z,0.90
2018-12-16T08:51:58.924Z,0.90
2018-12-16T08:54:30.072Z,0.90
2018-12-16T08:56:57.287Z,0.80
2018-12-16T08:59:25.437Z,0.80
2018-12-16T09:01:53.690Z,0.90
2018-12-16T09:04:22.067Z,1.00
2018-12-16T09:06:50.211Z,0.90
2018-12-16T09:09:18.704Z,1.00
2018-12-16T09:11:46.788Z,0.90
2018-12-16T09:14:14.927Z,1.00
2018-12-16T09:16:43.164Z,1.10
2018-12-16T09:19:11.312Z,1.10
2018-12-16T09:21:39.449Z,1.10
2018-12-16T09:24:07.700Z,1.20
2018-12-16T09:26:35.826Z,1.20
2018-12-16T09:29:03.975Z,1.20
2018-12-16T09:31:32.148Z,1.30
2018-12-16T09:34:00.268Z,1.20
2018-12-16T09:36:28.427Z,1.30
2018-12-16T09:38:56.594Z,1.30
2018-12-16T09:41:24.930Z,1.20
2018-12-16T09:43:53.213Z,1.10
2018-12-16T09:46:21.388Z,1.10
2018-12-16T09:48:49.508Z,1.10
2018-12-16T09:51:17.990Z,1.10
2018-12-16T09:53:46.216Z,1.30
2018-12-16T09:56:14.382Z,1.30
2018-12-16T09:58:42.549Z,1.40
2018-12-16T10:01:10.717Z,1.40
2018-12-16T10:03:38.983Z,1.50
2018-12-16T10:06:07.100Z,1.40
2018-12-16T10:08:35.208Z,1.30
2018-12-16T10:11:03.480Z,1.20
2018-12-16T10:13:31.685Z,1.40
2018-12-16T10:15:59.840Z,1.40
2018-12-16T10:18:28.145Z,1.40
2018-12-16T10:20:56.256Z,1.50
2018-12-16T10:23:24.359Z,1.50
2018-12-16T10:25:59.062Z,1.50
2018-12-16T10:28:27.241Z,1.60
2018-12-16T10:30:55.402Z,1.70
2018-12-16T10:33:23.540Z,1.70
2018-12-16T10:35:51.712Z,1.60
2018-12-16T10:38:19.776Z,1.60
2018-12-16T10:40:47.945Z,1.50
2018-12-16T10:43:16.331Z,1.40
2018-12-16T10:45:44.555Z,1.30
2018-12-16T10:48:13.344Z,1.10
2018-12-16T10:50:41.682Z,0.90
2018-12-16T10:53:09.804Z,0.90
2018-12-16T10:55:38.019Z,0.90
2018-12-16T10:58:06.208Z,1.10
2018-12-16T11:00:40.667Z,1.20
2018-12-16T11:03:09.051Z,1.30
2018-12-16T11:05:37.365Z,1.10
2018-12-16T11:08:05.531Z,1.20
2018-12-16T11:10:33.708Z,1.20
2018-12-16T11:13:02.124Z,1.30
2018-12-16T11:15:30.255Z,1.40
2018-12-16T11:17:58.496Z,1.40
2018-12-16T11:20:26.612Z,1.40
2018-12-16T11:22:54.738Z,1.30
2018-12-16T11:25:22.909Z,1.30
2018-12-16T11:27:51.022Z,1.50
2018-12-16T11:30:19.152Z,1.60
2018-12-16T11:32:47.413Z,1.40
2018-12-16T11:35:15.541Z,1.50
2018-12-16T11:37:43.692Z,1.50
2018-12-16T11:40:11.896Z,1.50
2018-12-16T11:42:40.025Z,1.50
2018-12-16T11:45:08.188Z,1.30
2018-12-16T11:47:36.369Z,1.10
2018-12-16T11:50:04.839Z,1.30
2018-12-16T11:52:32.984Z,1.30
2018-12-16T11:55:01.191Z,1.30
2018-12-16T11:57:29.313Z,1.30
2018-12-16T11:59:57.449Z,1.40
2018-12-16T12:02:32.653Z,1.40
2018-12-16T12:04:55.821Z,1.40
2018-12-16T12:07:23.970Z,1.50
2018-12-16T12:09:52.129Z,1.60
2018-12-16T12:12:20.238Z,1.60
2018-12-16T12:14:48.344Z,1.50
2018-12-16T12:17:16.510Z,1.60
2018-12-16T12:19:44.649Z,1.50
2018-12-16T12:22:12.794Z,1.50
2018-12-16T12:24:40.996Z,1.40
2018-12-16T12:27:09.196Z,1.50
2018-12-16T12:29:37.312Z,1.50
2018-12-16T12:32:05.531Z,1.50
2018-12-16T12:34:33.660Z,1.50
2018-12-16T12:37:01.789Z,1.40
2018-12-16T12:39:29.993Z,1.50
2018-12-16T12:42:04.556Z,1.50
2018-12-16T12:44:32.769Z,1.60
2018-12-16T12:47:00.884Z,1.60
2018-12-16T12:49:29.020Z,1.60
2018-12-16T12:51:57.224Z,1.40
2018-12-16T12:54:25.302Z,1.50
2018-12-16T12:56:53.436Z,1.50
2018-12-16T12:59:21.715Z,1.50
2018-12-16T13:01:49.847Z,1.50
2018-12-16T13:04:17.969Z,1.40
2018-12-16T13:06:46.137Z,1.50
2018-12-16T13:09:14.252Z,1.50
2018-12-16T13:11:42.391Z,1.60
2018-12-16T13:14:10.589Z,1.60
2018-12-16T13:16:39.095Z,1.60
2018-12-16T13:19:07.248Z,1.50
2018-12-16T13:21:35.532Z,1.40
2018-12-16T13:24:03.947Z,1.30
2018-12-16T13:26:32.694Z,1.30
2018-12-16T13:29:00.994Z,1.30
2018-12-16T13:31:29.150Z,1.30
2018-12-16T13:33:57.256Z,1.20
2018-12-16T13:36:25.453Z,1.20
2018-12-16T13:38:53.571Z,1.20
2018-12-16T13:41:21.707Z,1.30
2018-12-16T13:43:49.881Z,1.20
2018-12-16T13:46:18.008Z,1.20
2018-12-16T13:48:46.130Z,1.20
2018-12-16T13:51:14.372Z,1.20
2018-12-16T13:53:42.572Z,1.30
2018-12-16T13:56:10.781Z,1.40
2018-12-16T13:58:39.014Z,1.40
2018-12-16T14:01:07.152Z,1.40
2018-12-16T14:03:35.803Z,1.40
2018-12-16T14:06:04.024Z,1.40
2018-12-16T14:08:32.264Z,1.20
2018-12-16T14:11:00.548Z,1.30
2018-12-16T14:13:28.732Z,1.20
2018-12-16T14:15:58.593Z,1.20
2018-12-16T14:18:26.780Z,1.10
2018-12-16T14:20:55.468Z,1.20
2018-12-16T14:23:25.177Z,1.20
2018-12-16T14:25:53.340Z,1.30
2018-12-16T14:28:21.476Z,1.30
2018-12-16T14:30:49.645Z,1.30
2018-12-16T14:34:19.413Z,1.30
2018-12-16T14:36:47.581Z,1.20
2018-12-16T14:39:15.703Z,1.30
2018-12-16T14:41:44.034Z,1.30
2018-12-16T14:44:12.212Z,1.20
2018-12-16T14:46:40.389Z,1.20
2018-12-16T14:49:08.660Z,1.20
2018-12-16T14:51:36.936Z,1.10
2018-12-16T14:54:05.134Z,1.10
2018-12-16T14:56:33.357Z,1.10
2018-12-16T14:59:01.457Z,1.10
2018-12-16T15:01:29.624Z,1.00
2018-12-16T15:03:57.748Z,1.10
2018-12-16T15:06:25.860Z,1.20
2018-12-16T15:08:54.044Z,1.20
2018-12-16T15:11:22.209Z,1.00
2018-12-16T15:13:50.417Z,1.00
2018-12-16T15:16:18.627Z,1.00
2018-12-16T15:18:46.776Z,1.10
2018-12-16T15:24:54.908Z,1.10
2018-12-16T15:27:23.156Z,1.20
2018-12-16T15:29:51.283Z,1.10
2018-12-16T15:32:19.504Z,1.10
2018-12-16T15:34:47.808Z,1.00
2018-12-16T15:37:15.929Z,1.10
2018-12-16T15:39:44.109Z,1.00
2018-12-16T15:42:12.216Z,1.00
2018-12-16T15:44:40.336Z,1.00
2018-12-16T15:47:08.542Z,1.10
2018-12-16T15:49:36.697Z,1.10
2018-12-16T15:52:04.796Z,1.10
2018-12-16T15:54:32.966Z,1.10
2018-12-16T15:57:01.080Z,1.10
2018-12-16T15:59:29.200Z,1.20
2018-12-16T16:01:57.372Z,1.10
2018-12-16T16:04:25.477Z,1.00
2018-12-16T16:06:53.607Z,1.20
2018-12-16T16:09:21.764Z,1.10
2018-12-16T16:11:49.876Z,1.30
2018-12-16T16:14:18.008Z,1.20
2018-12-16T16:16:46.303Z,1.20
2018-12-16T16:19:14.513Z,1.20
2018-12-16T16:21:42.678Z,1.10
2018-12-16T16:24:10.849Z,1.00
2018-12-16T16:26:38.965Z,1.00
2018-12-16T16:29:07.189Z,1.10
2018-12-16T16:31:35.464Z,1.10
2018-12-16T16:34:03.580Z,1.00
2018-12-16T16:36:31.741Z,1.00
2018-12-16T16:38:59.900Z,1.00
2018-12-16T16:41:28.012Z,0.90
2018-12-16T16:43:56.128Z,0.90
2018-12-16T16:46:24.306Z,0.80
2018-12-16T16:48:52.424Z,0.80
2018-12-16T16:51:20.681Z,0.70
2018-12-16T16:53:48.805Z,0.70
2018-12-16T16:56:22.909Z,0.70
2018-12-16T16:58:47.105Z,0.80
2018-12-16T17:01:15.268Z,0.80
2018-12-16T17:03:43.461Z,0.80
2018-12-16T17:06:11.668Z,0.80
2018-12-16T17:08:39.787Z,0.80
2018-12-16T17:11:08.101Z,0.80
2018-12-16T17:13:36.265Z,0.80
2018-12-16T17:16:04.428Z,0.80
2018-12-16T17:18:32.541Z,0.80
2018-12-16T17:21:00.700Z,0.80
2018-12-16T17:23:28.917Z,0.70
2018-12-16T17:25:57.051Z,0.70
2018-12-16T17:28:25.279Z,0.70
2018-12-16T17:30:53.465Z,0.80
2018-12-16T17:33:21.613Z,0.70
2018-12-16T17:35:49.840Z,0.70
2018-12-16T17:38:19.169Z,0.70
2018-12-16T17:40:47.435Z,0.90
2018-12-16T17:43:15.627Z,0.80
2018-12-16T17:45:43.803Z,0.70
2018-12-16T17:48:11.921Z,0.80
2018-12-16T17:50:40.081Z,0.80
2018-12-16T17:53:08.248Z,0.80
2018-12-16T17:55:36.357Z,0.80
2018-12-16T17:58:04.456Z,0.90
2018-12-16T18:00:32.704Z,0.80
2018-12-16T18:03:00.808Z,0.70
2018-12-16T18:05:29.068Z,0.70
2018-12-16T18:07:57.316Z,0.60
2018-12-16T18:10:25.472Z,0.60
2018-12-16T18:12:53.684Z,0.60
2018-12-16T18:15:21.916Z,0.60
2018-12-16T18:17:50.039Z,0.60
2018-12-16T18:20:18.284Z,0.60
2018-12-16T18:22:46.530Z,0.60
2018-12-16T18:25:14.664Z,0.40
2018-12-16T18:27:42.763Z,0.40
2018-12-16T18:30:11.109Z,0.30
2018-12-16T18:32:39.181Z,0.40
2018-12-16T18:35:07.288Z,0.40
2018-12-16T18:37:35.504Z,0.40
2018-12-16T18:40:04.068Z,0.40
2018-12-16T18:42:32.182Z,0.40
2018-12-16T18:45:00.436Z,0.40
2018-12-16T18:47:28.608Z,0.50
2018-12-16T18:49:56.784Z,0.50
2018-12-16T18:52:24.924Z,0.30
2018-12-16T18:54:53.040Z,0.30
2018-12-16T18:57:21.200Z,0.40
2018-12-16T18:59:49.367Z,0.40
2018-12-16T19:02:17.472Z,0.40
2018-12-16T19:04:45.587Z,0.30
2018-12-16T19:07:13.707Z,0.30
2018-12-16T19:09:41.825Z,0.30
2018-12-16T19:12:10.080Z,0.40
2018-12-16T19:17:16.457Z,0.50
2018-12-16T19:19:44.550Z,0.40
2018-12-16T19:22:12.667Z,0.40
2018-12-16T19:24:40.871Z,0.30
2018-12-16T19:27:08.997Z,0.20
2018-12-16T19:29:37.087Z,0.30
2018-12-16T19:32:05.411Z,0.30
2018-12-16T19:34:33.620Z,0.30
2018-12-16T19:37:01.792Z,0.40
2018-12-16T19:39:30.051Z,0.40
2018-12-16T19:41:58.159Z,0.40
2018-12-16T19:44:26.320Z,0.40
2018-12-16T19:46:54.489Z,0.30
2018-12-16T19:49:22.600Z,0.30
2018-12-16T19:51:50.740Z,0.40
2018-12-16T19:54:19.206Z,0.40
2018-12-16T19:56:47.316Z,0.40
2018-12-16T19:59:15.397Z,0.40
2018-12-16T20:01:43.691Z,0.30
2018-12-16T20:04:16.952Z,0.30
2018-12-16T20:06:47.484Z,0.40
2018-12-16T20:09:15.667Z,0.30
2018-12-16T20:11:43.824Z,0.30
2018-12-16T20:14:12.033Z,0.40
2018-12-16T20:16:40.088Z,0.30
2018-12-16T20:19:08.334Z,0.40
2018-12-16T20:21:36.584Z,0.40
2018-12-16T20:24:04.780Z,0.30
2018-12-16T20:26:32.883Z,0.40
2018-12-16T20:29:01.076Z,0.30
2018-12-16T20:31:29.196Z,0.30
2018-12-16T20:33:57.413Z,0.40
2018-12-16T20:36:25.548Z,0.30
2018-12-16T20:38:53.771Z,0.40
2018-12-16T20:41:22.000Z,0.40
2018-12-16T20:43:50.175Z,0.40
2018-12-16T20:46:18.276Z,0.40
2018-12-16T20:48:46.450Z,0.30
2018-12-16T20:51:14.588Z,0.30
2018-12-16T20:53:42.677Z,0.30
2018-12-16T20:56:10.868Z,0.20
2018-12-16T20:58:39.011Z,0.20
2018-12-16T21:01:07.208Z,0.20
2018-12-16T21:03:35.404Z,0.10
2018-12-16T21:06:03.509Z,0.10
2018-12-16T21:08:31.739Z,0.10
2018-12-16T21:11:04.109Z,0.00
2018-12-16T21:13:37.819Z,0.00
2018-12-16T21:16:11.275Z,0.10
2018-12-16T21:18:39.572Z,0.10
2018-12-16T21:21:07.737Z,0.10
2018-12-16T21:23:35.922Z,0.20
2018-12-16T21:26:04.124Z,0.20
2018-12-16T21:28:32.386Z,0.20
2018-12-16T21:31:00.507Z,0.10
2018-12-16T21:33:28.620Z,0.10
2018-12-16T21:35:56.712Z,0.10
2018-12-16T21:38:24.836Z,0.10
2018-12-16T21:40:53.003Z,0.30
2018-12-16T21:43:21.099Z,0.20
2018-12-16T21:45:49.196Z,0.20
2018-12-16T21:48:17.349Z,0.20
2018-12-16T21:50:45.616Z,0.20
2018-12-16T21:53:13.975Z,0.30
2018-12-16T21:55:42.132Z,0.30
2018-12-16T21:58:10.379Z,0.20
2018-12-16T22:00:38.893Z,0.10
2018-12-16T22:03:07.056Z,0.00
2018-12-16T22:05:35.254Z,0.10
2018-12-16T22:08:03.427Z,0.20
2018-12-16T22:10:32.120Z,0.20
2018-12-16T22:13:00.301Z,0.20
2018-12-16T22:15:28.921Z,0.20
2018-12-16T22:17:57.144Z,0.10
2018-12-16T22:20:25.239Z,0.20
2018-12-16T22:22:53.331Z,0.20
2018-12-16T22:25:21.488Z,0.40
2018-12-16T22:27:49.636Z,0.20
2018-12-16T22:30:17.744Z,0.20
2018-12-16T22:32:45.920Z,0.20
2018-12-16T22:35:14.032Z,0.30
2018-12-16T22:37:42.188Z,0.30
2018-12-16T22:40:10.597Z,0.30
2018-12-16T22:42:38.725Z,0.30
2018-12-16T22:45:07.691Z,0.30
2018-12-16T22:47:36.604Z,0.40
2018-12-16T22:50:05.209Z,0.30
2018-12-16T22:52:33.372Z,0.30
2018-12-16T22:55:01.475Z,0.30
2018-12-16T22:57:30.340Z,0.20
2018-12-16T22:59:58.607Z,0.30
2018-12-16T23:02:26.740Z,0.30
2018-12-16T23:04:54.924Z,0.30
2018-12-16T23:07:23.111Z,0.20
2018-12-16T23:09:51.279Z,0.10
2018-12-16T23:12:19.403Z,0.20
2018-12-16T23:14:47.659Z,0.20
2018-12-16T23:20:10.865Z,0.20
2018-12-16T23:22:38.995Z,0.30
2018-12-16T23:25:07.414Z,0.30
2018-12-16T23:27:35.663Z,0.40
2018-12-16T23:30:04.348Z,0.40
2018-12-16T23:32:32.466Z,0.30
2018-12-16T23:35:00.639Z,0.30
2018-12-16T23:37:28.815Z,0.20
2018-12-16T23:39:56.964Z,0.20
2018-12-16T23:42:25.098Z,0.30
2018-12-16T23:44:53.288Z,0.20
2018-12-16T23:47:21.448Z,0.10
2018-12-16T23:49:49.524Z,0.10
2018-12-16T23:52:17.705Z,0.20
2018-12-16T23:54:45.824Z,0.20
2018-12-16T23:57:13.978Z,0.10
2018-12-16T23:59:42.264Z,0.20
